createdAt,value
2022-10-09T00:00:15.361Z,43.55
2022-10-09T00:00:45.805Z,43.58
2022-10-09T00:01:16.223Z,43.58
2022-10-09T00:01:46.648Z,43.58
2022-10-09T00:02:17.158Z,43.55
2022-10-09T00:02:47.921Z,43.58
2022-10-09T00:03:18.497Z,43.58
2022-10-09T00:03:48.921Z,43.55
2022-10-09T00:04:19.348Z,43.55
2022-10-09T00:04:49.849Z,43.58
2022-10-09T00:05:20.308Z,43.55
2022-10-09T00:05:50.673Z,43.55
2022-10-09T00:06:21.101Z,43.55
2022-10-09T00:06:51.520Z,43.55
2022-10-09T00:07:21.962Z,43.55
2022-10-09T00:07:52.385Z,43.55
2022-10-09T00:08:22.827Z,43.55
2022-10-09T00:08:53.235Z,43.55
2022-10-09T00:09:23.654Z,43.55
2022-10-09T00:09:54.072Z,43.55
2022-10-09T00:10:24.499Z,43.55
2022-10-09T00:10:54.926Z,43.55
2022-10-09T00:11:25.380Z,43.58
2022-10-09T00:11:55.816Z,43.55
2022-10-09T00:12:26.429Z,43.55
2022-10-09T00:12:56.853Z,43.58
2022-10-09T00:13:27.279Z,43.55
2022-10-09T00:13:57.698Z,43.55
2022-10-09T00:14:28.120Z,43.55
2022-10-09T00:14:58.548Z,43.55
2022-10-09T00:15:28.970Z,43.55
2022-10-09T00:15:59.387Z,43.55
2022-10-09T00:16:29.915Z,43.55
2022-10-09T00:17:00.365Z,43.55
2022-10-09T00:17:30.870Z,43.55
2022-10-09T00:18:01.294Z,43.58
2022-10-09T00:18:31.716Z,43.55
2022-10-09T00:19:02.143Z,43.58
2022-10-09T00:19:32.573Z,43.55
2022-10-09T00:20:02.996Z,43.55
2022-10-09T00:20:33.424Z,43.55
2022-10-09T00:21:03.844Z,43.55
2022-10-09T00:21:34.267Z,43.55
2022-10-09T00:22:04.700Z,43.46
2022-10-09T00:22:35.151Z,43.46
2022-10-09T00:23:05.590Z,43.46
2022-10-09T00:23:36.013Z,43.46
2022-10-09T00:24:06.415Z,43.55
2022-10-09T00:24:36.854Z,43.55
2022-10-09T00:25:07.281Z,43.46
2022-10-09T00:25:37.703Z,43.46
2022-10-09T00:26:08.124Z,43.55
2022-10-09T00:26:38.571Z,43.55
2022-10-09T00:27:08.992Z,43.55
2022-10-09T00:27:39.439Z,43.46
2022-10-09T00:28:09.928Z,43.48
2022-10-09T00:28:40.361Z,43.46
2022-10-09T00:29:10.753Z,43.46
2022-10-09T00:29:41.186Z,43.46
2022-10-09T00:30:11.608Z,43.46
2022-10-09T00:30:42.159Z,43.55
2022-10-09T00:31:12.550Z,43.55
2022-10-09T00:31:42.977Z,43.55
2022-10-09T00:32:13.398Z,43.46
2022-10-09T00:32:43.838Z,43.46
2022-10-09T00:33:14.266Z,43.46
2022-10-09T00:33:44.700Z,43.46
2022-10-09T00:34:15.120Z,43.46
2022-10-09T00:34:45.566Z,43.55
2022-10-09T00:35:15.982Z,43.48
2022-10-09T00:35:46.418Z,43.46
2022-10-09T00:36:16.864Z,43.46
2022-10-09T00:36:47.275Z,43.46
2022-10-09T00:37:17.702Z,43.48
2022-10-09T00:37:48.140Z,43.46
2022-10-09T00:38:18.563Z,43.46
2022-10-09T00:38:49.000Z,43.46
2022-10-09T00:39:19.410Z,43.46
2022-10-09T00:39:49.828Z,43.46
2022-10-09T00:40:20.265Z,43.46
2022-10-09T00:40:50.682Z,43.46
2022-10-09T00:41:21.104Z,43.46
2022-10-09T00:41:51.542Z,43.46
2022-10-09T00:42:21.971Z,43.48
2022-10-09T00:42:52.433Z,43.46
2022-10-09T00:43:22.850Z,43.48
2022-10-09T00:43:53.273Z,43.46
2022-10-09T00:44:23.696Z,43.46
2022-10-09T00:44:54.119Z,43.46
2022-10-09T00:45:24.540Z,43.48
2022-10-09T00:45:55.010Z,43.46
2022-10-09T00:46:25.487Z,43.46
2022-10-09T00:46:55.919Z,43.46
2022-10-09T00:47:26.350Z,43.46
2022-10-09T00:47:56.791Z,43.46
2022-10-09T00:48:27.214Z,43.46
2022-10-09T00:48:57.636Z,43.46
2022-10-09T00:49:28.084Z,43.46
2022-10-09T00:49:58.501Z,43.46
2022-10-09T00:50:28.937Z,43.46
2022-10-09T00:50:59.359Z,43.48
2022-10-09T00:51:29.784Z,43.46
2022-10-09T00:52:00.205Z,43.46
2022-10-09T00:52:30.633Z,43.46
2022-10-09T00:53:01.067Z,43.46
2022-10-09T00:53:31.491Z,43.46
2022-10-09T00:54:01.945Z,43.46
2022-10-09T00:54:32.347Z,43.46
2022-10-09T00:55:02.770Z,43.46
2022-10-09T00:55:33.217Z,43.48
2022-10-09T00:56:03.651Z,43.48
2022-10-09T00:56:34.073Z,43.46
2022-10-09T00:57:04.766Z,43.48
2022-10-09T00:57:35.188Z,43.48
2022-10-09T00:58:05.633Z,43.48
2022-10-09T00:58:36.064Z,43.48
2022-10-09T00:59:06.471Z,43.46
2022-10-09T00:59:36.892Z,43.46
2022-10-09T01:00:07.324Z,43.46
2022-10-09T01:00:37.737Z,43.46
2022-10-09T01:01:08.203Z,43.48
2022-10-09T01:01:38.704Z,43.48
2022-10-09T01:02:09.161Z,43.46
2022-10-09T01:02:39.685Z,43.46
2022-10-09T01:03:10.073Z,43.46
2022-10-09T01:03:40.502Z,43.46
2022-10-09T01:04:10.935Z,43.48
2022-10-09T01:04:41.356Z,43.48
2022-10-09T01:05:11.777Z,43.46
2022-10-09T01:05:42.202Z,43.48
2022-10-09T01:06:12.626Z,43.48
2022-10-09T01:06:43.062Z,43.48
2022-10-09T01:07:13.497Z,43.46
2022-10-09T01:07:43.931Z,43.35
2022-10-09T01:08:14.396Z,43.35
2022-10-09T01:08:44.832Z,43.35
2022-10-09T01:09:15.276Z,43.46
2022-10-09T01:09:45.679Z,43.35
2022-10-09T01:10:16.101Z,43.35
2022-10-09T01:10:46.528Z,43.35
2022-10-09T01:11:16.960Z,43.35
2022-10-09T01:11:47.383Z,43.48
2022-10-09T01:12:17.810Z,43.35
2022-10-09T01:12:48.682Z,43.38
2022-10-09T01:13:19.376Z,43.48
2022-10-09T01:13:49.800Z,43.38
2022-10-09T01:14:20.232Z,43.38
2022-10-09T01:14:50.660Z,43.38
2022-10-09T01:15:21.084Z,43.38
2022-10-09T01:15:51.553Z,43.38
2022-10-09T01:16:24.047Z,43.38
2022-10-09T01:16:54.546Z,43.38
2022-10-09T01:17:24.966Z,43.35
2022-10-09T01:17:55.398Z,43.35
2022-10-09T01:18:25.842Z,43.35
2022-10-09T01:18:56.261Z,43.38
2022-10-09T01:19:26.683Z,43.35
2022-10-09T01:19:57.111Z,43.38
2022-10-09T01:20:27.531Z,43.38
2022-10-09T01:20:57.963Z,43.38
2022-10-09T01:21:28.398Z,43.38
2022-10-09T01:21:58.843Z,43.38
2022-10-09T01:22:29.281Z,43.38
2022-10-09T01:22:59.700Z,43.38
2022-10-09T01:23:30.136Z,43.35
2022-10-09T01:24:00.579Z,43.38
2022-10-09T01:24:31.073Z,43.35
2022-10-09T01:25:01.421Z,43.38
2022-10-09T01:25:31.848Z,43.35
2022-10-09T01:26:02.275Z,43.35
2022-10-09T01:26:32.704Z,43.35
2022-10-09T01:27:03.118Z,43.38
2022-10-09T01:27:33.544Z,43.38
2022-10-09T01:28:04.015Z,43.38
2022-10-09T01:28:34.447Z,43.38
2022-10-09T01:29:04.842Z,43.38
2022-10-09T01:29:35.268Z,43.38
2022-10-09T01:30:05.696Z,43.35
2022-10-09T01:30:36.196Z,43.35
2022-10-09T01:31:06.708Z,43.35
2022-10-09T01:31:37.099Z,43.38
2022-10-09T01:32:07.516Z,43.38
2022-10-09T01:32:37.937Z,43.38
2022-10-09T01:33:08.367Z,43.38
2022-10-09T01:33:38.890Z,43.35
2022-10-09T01:34:09.311Z,43.38
2022-10-09T01:34:39.736Z,43.38
2022-10-09T01:35:10.153Z,43.27
2022-10-09T01:35:40.575Z,43.35
2022-10-09T01:36:11.006Z,43.38
2022-10-09T01:36:41.432Z,43.35
2022-10-09T01:37:11.849Z,43.38
2022-10-09T01:37:42.276Z,43.38
2022-10-09T01:38:12.698Z,43.38
2022-10-09T01:38:43.140Z,43.38
2022-10-09T01:39:13.574Z,43.27
2022-10-09T01:39:44.034Z,43.27
2022-10-09T01:40:14.436Z,43.27
2022-10-09T01:40:44.861Z,43.27
2022-10-09T01:41:15.286Z,43.38
2022-10-09T01:41:45.707Z,43.27
2022-10-09T01:42:16.133Z,43.38
2022-10-09T01:42:47.004Z,43.27
2022-10-09T01:43:17.681Z,43.27
2022-10-09T01:43:48.204Z,43.38
2022-10-09T01:44:18.655Z,43.27
2022-10-09T01:44:49.070Z,43.27
2022-10-09T01:45:19.494Z,43.35
2022-10-09T01:45:49.919Z,43.38
2022-10-09T01:46:20.437Z,43.27
2022-10-09T01:46:50.848Z,43.27
2022-10-09T01:47:21.286Z,43.27
2022-10-09T01:47:51.713Z,43.27
2022-10-09T01:48:22.157Z,43.27
2022-10-09T01:48:52.599Z,43.27
2022-10-09T01:49:23.034Z,43.27
2022-10-09T01:49:53.456Z,43.27
2022-10-09T01:50:23.879Z,43.27
2022-10-09T01:50:54.320Z,43.27
2022-10-09T01:51:24.740Z,43.27
2022-10-09T01:51:55.161Z,43.38
2022-10-09T01:52:25.594Z,43.27
2022-10-09T01:52:56.036Z,43.27
2022-10-09T01:53:26.449Z,43.27
2022-10-09T01:53:56.897Z,43.26
2022-10-09T01:54:27.317Z,43.27
2022-10-09T01:54:57.761Z,43.27
2022-10-09T01:55:28.164Z,43.27
2022-10-09T01:55:58.586Z,43.27
2022-10-09T01:56:29.010Z,43.27
2022-10-09T01:56:59.446Z,43.27
2022-10-09T01:57:29.887Z,43.27
2022-10-09T01:58:00.310Z,43.27
2022-10-09T01:58:30.736Z,43.27
2022-10-09T01:59:01.184Z,43.27
2022-10-09T01:59:31.603Z,43.27
2022-10-09T02:00:02.029Z,43.27
2022-10-09T02:00:32.458Z,43.27
2022-10-09T02:01:02.890Z,43.27
2022-10-09T02:01:33.348Z,43.27
2022-10-09T02:02:03.899Z,43.27
2022-10-09T02:02:34.416Z,43.27
2022-10-09T02:03:04.908Z,43.27
2022-10-09T02:03:35.329Z,43.27
2022-10-09T02:04:05.790Z,43.27
2022-10-09T02:04:36.196Z,43.27
2022-10-09T02:05:06.622Z,43.27
2022-10-09T02:05:37.045Z,43.27
2022-10-09T02:06:07.468Z,43.27
2022-10-09T02:06:37.894Z,43.27
2022-10-09T02:07:08.315Z,43.27
2022-10-09T02:07:38.742Z,43.27
2022-10-09T02:08:09.178Z,43.27
2022-10-09T02:08:39.606Z,43.27
2022-10-09T02:09:10.049Z,43.27
2022-10-09T02:09:40.471Z,43.27
2022-10-09T02:10:10.911Z,43.27
2022-10-09T02:10:41.315Z,43.27
2022-10-09T02:11:11.744Z,43.27
2022-10-09T02:11:42.179Z,43.27
2022-10-09T02:12:12.600Z,43.27
2022-10-09T02:12:43.035Z,43.27
2022-10-09T02:13:13.466Z,43.27
2022-10-09T02:13:43.879Z,43.27
2022-10-09T02:14:14.332Z,43.27
2022-10-09T02:14:44.763Z,43.27
2022-10-09T02:15:15.177Z,43.27
2022-10-09T02:15:45.669Z,43.27
2022-10-09T02:16:16.088Z,43.27
2022-10-09T02:16:46.474Z,43.27
2022-10-09T02:17:16.898Z,43.27
2022-10-09T02:17:47.336Z,43.27
2022-10-09T02:18:17.753Z,43.27
2022-10-09T02:18:48.177Z,43.27
2022-10-09T02:19:18.619Z,43.27
2022-10-09T02:19:49.045Z,43.27
2022-10-09T02:20:19.465Z,43.27
2022-10-09T02:20:49.911Z,43.18
2022-10-09T02:21:20.337Z,43.18
2022-10-09T02:21:54.396Z,43.27
2022-10-09T02:22:25.051Z,43.27
2022-10-09T02:22:55.474Z,43.18
2022-10-09T02:23:25.903Z,43.27
2022-10-09T02:23:56.331Z,43.18
2022-10-09T02:24:26.762Z,43.27
2022-10-09T02:24:57.190Z,43.18
2022-10-09T02:25:27.643Z,43.27
2022-10-09T02:25:58.050Z,43.27
2022-10-09T02:26:28.467Z,43.38
2022-10-09T02:26:58.899Z,43.27
2022-10-09T02:27:29.335Z,43.27
2022-10-09T02:27:59.753Z,43.27
2022-10-09T02:28:30.216Z,43.27
2022-10-09T02:29:00.641Z,43.18
2022-10-09T02:29:31.094Z,43.18
2022-10-09T02:30:01.508Z,43.18
2022-10-09T02:30:31.934Z,43.18
2022-10-09T02:31:02.456Z,43.18
2022-10-09T02:31:32.895Z,43.18
2022-10-09T02:32:03.299Z,43.48
2022-10-09T02:32:33.734Z,43.27
2022-10-09T02:33:04.158Z,43.18
2022-10-09T02:33:34.585Z,43.18
2022-10-09T02:34:05.005Z,43.18
2022-10-09T02:34:35.442Z,43.18
2022-10-09T02:35:05.866Z,43.18
2022-10-09T02:35:36.285Z,43.18
2022-10-09T02:36:06.711Z,43.18
2022-10-09T02:36:37.130Z,43.18
2022-10-09T02:37:07.560Z,43.18
2022-10-09T02:37:37.987Z,43.18
2022-10-09T02:38:08.409Z,43.18
2022-10-09T02:38:38.836Z,43.18
2022-10-09T02:39:09.279Z,43.18
2022-10-09T02:39:39.734Z,43.18
2022-10-09T02:40:10.978Z,43.18
2022-10-09T02:40:41.595Z,43.18
2022-10-09T02:41:11.942Z,43.18
2022-10-09T02:41:42.371Z,43.18
2022-10-09T02:42:12.793Z,43.18
2022-10-09T02:42:43.221Z,43.18
2022-10-09T02:43:13.649Z,43.18
2022-10-09T02:43:44.082Z,43.18
2022-10-09T02:44:14.517Z,43.18
2022-10-09T02:44:44.966Z,43.18
2022-10-09T02:45:15.393Z,43.18
2022-10-09T02:45:45.826Z,43.18
2022-10-09T02:46:16.274Z,43.18
2022-10-09T02:46:46.775Z,43.18
2022-10-09T02:47:17.163Z,43.18
2022-10-09T02:47:47.584Z,43.18
2022-10-09T02:48:18.012Z,43.18
2022-10-09T02:48:48.437Z,43.18
2022-10-09T02:49:18.877Z,43.08
2022-10-09T02:49:49.333Z,43.08
2022-10-09T02:50:19.754Z,43.18
2022-10-09T02:50:50.183Z,43.08
2022-10-09T02:51:20.635Z,43.08
2022-10-09T02:51:51.049Z,43.08
2022-10-09T02:52:21.479Z,43.18
2022-10-09T02:52:52.041Z,43.18
2022-10-09T02:53:22.466Z,43.08
2022-10-09T02:53:52.891Z,43.18
2022-10-09T02:54:23.317Z,43.08
2022-10-09T02:54:53.770Z,43.08
2022-10-09T02:55:24.187Z,43.08
2022-10-09T02:55:54.628Z,43.08
2022-10-09T02:56:25.041Z,43.08
2022-10-09T02:56:55.485Z,43.08
2022-10-09T02:57:25.897Z,43.08
2022-10-09T02:57:56.321Z,43.08
2022-10-09T02:58:26.758Z,43.08
2022-10-09T02:58:57.178Z,43.08
2022-10-09T02:59:27.612Z,43.08
2022-10-09T02:59:58.083Z,43.08
2022-10-09T03:00:28.497Z,43.08
2022-10-09T03:00:58.923Z,43.08
2022-10-09T03:01:29.363Z,43.08
2022-10-09T03:01:59.948Z,43.08
2022-10-09T03:02:30.471Z,43.08
2022-10-09T03:03:00.982Z,43.08
2022-10-09T03:03:31.368Z,43.08
2022-10-09T03:04:01.792Z,43.08
2022-10-09T03:04:32.230Z,43.08
2022-10-09T03:05:02.679Z,43.08
2022-10-09T03:05:33.104Z,43.08
2022-10-09T03:06:03.530Z,43.08
2022-10-09T03:06:33.951Z,43.08
2022-10-09T03:07:04.373Z,43.08
2022-10-09T03:07:34.802Z,43.08
2022-10-09T03:08:05.226Z,43.08
2022-10-09T03:08:35.652Z,43.18
2022-10-09T03:09:06.083Z,43.08
2022-10-09T03:09:36.526Z,43.08
2022-10-09T03:10:06.944Z,43.08
2022-10-09T03:10:37.383Z,42.97
2022-10-09T03:11:07.826Z,42.97
2022-10-09T03:11:38.230Z,42.97
2022-10-09T03:12:08.656Z,42.97
2022-10-09T03:12:39.091Z,43.08
2022-10-09T03:13:09.519Z,43.08
2022-10-09T03:13:39.941Z,42.97
2022-10-09T03:14:10.375Z,42.97
2022-10-09T03:14:40.799Z,42.97
2022-10-09T03:15:11.245Z,42.97
2022-10-09T03:15:41.753Z,42.97
2022-10-09T03:16:12.226Z,42.97
2022-10-09T03:16:42.753Z,42.97
2022-10-09T03:17:13.175Z,42.97
2022-10-09T03:17:43.597Z,42.97
2022-10-09T03:18:14.030Z,42.97
2022-10-09T03:18:44.504Z,42.97
2022-10-09T03:19:14.922Z,42.97
2022-10-09T03:19:45.344Z,42.97
2022-10-09T03:20:15.793Z,42.97
2022-10-09T03:20:46.226Z,42.97
2022-10-09T03:21:16.637Z,42.97
2022-10-09T03:21:47.057Z,42.97
2022-10-09T03:22:17.486Z,42.97
2022-10-09T03:22:48.347Z,42.97
2022-10-09T03:23:18.909Z,42.97
2022-10-09T03:23:49.721Z,42.97
2022-10-09T03:24:20.129Z,42.97
2022-10-09T03:24:50.560Z,42.97
2022-10-09T03:25:21.008Z,42.97
2022-10-09T03:25:51.429Z,42.97
2022-10-09T03:26:21.870Z,42.97
2022-10-09T03:26:52.280Z,42.97
2022-10-09T03:27:22.712Z,42.97
2022-10-09T03:27:53.130Z,42.88
2022-10-09T03:28:23.671Z,42.88
2022-10-09T03:28:54.177Z,42.88
2022-10-09T03:29:24.587Z,42.88
2022-10-09T03:29:55.016Z,42.88
2022-10-09T03:30:25.466Z,42.88
2022-10-09T03:30:55.982Z,42.88
2022-10-09T03:31:51.273Z,42.97
2022-10-09T03:32:01.751Z,42.97
2022-10-09T03:32:32.217Z,42.88
2022-10-09T03:33:02.614Z,42.88
2022-10-09T03:33:33.042Z,42.88
2022-10-09T03:34:03.469Z,42.88
2022-10-09T03:34:33.895Z,42.88
2022-10-09T03:35:04.336Z,42.97
2022-10-09T03:35:34.762Z,42.88
2022-10-09T03:36:05.190Z,42.88
2022-10-09T03:36:35.614Z,42.88
2022-10-09T03:37:06.038Z,42.88
2022-10-09T03:37:36.467Z,42.88
2022-10-09T03:38:06.898Z,42.88
2022-10-09T03:38:37.326Z,42.88
2022-10-09T03:39:07.748Z,42.88
2022-10-09T03:39:38.184Z,42.88
2022-10-09T03:40:08.614Z,42.88
2022-10-09T03:40:39.052Z,42.88
2022-10-09T03:41:09.497Z,42.88
2022-10-09T03:41:39.941Z,42.88
2022-10-09T03:42:10.349Z,42.88
2022-10-09T03:42:40.772Z,42.88
2022-10-09T03:43:11.193Z,42.88
2022-10-09T03:43:41.623Z,42.88
2022-10-09T03:44:12.049Z,42.88
2022-10-09T03:44:42.469Z,42.88
2022-10-09T03:45:12.893Z,42.88
2022-10-09T03:45:43.329Z,42.88
2022-10-09T03:46:13.771Z,42.88
2022-10-09T03:46:44.238Z,42.88
2022-10-09T03:47:14.615Z,42.88
2022-10-09T03:47:45.042Z,42.88
2022-10-09T03:48:15.472Z,42.88
2022-10-09T03:48:45.897Z,42.88
2022-10-09T03:49:16.332Z,42.88
2022-10-09T03:49:46.749Z,42.88
2022-10-09T03:50:17.179Z,42.88
2022-10-09T03:50:47.639Z,42.88
2022-10-09T03:51:18.076Z,42.88
2022-10-09T03:51:48.505Z,42.77
2022-10-09T03:52:18.923Z,42.77
2022-10-09T03:52:49.693Z,42.88
2022-10-09T03:53:20.289Z,42.88
2022-10-09T03:53:50.713Z,42.77
2022-10-09T03:54:21.172Z,42.77
2022-10-09T03:54:51.593Z,42.77
2022-10-09T03:55:22.013Z,42.77
2022-10-09T03:55:52.453Z,42.77
2022-10-09T03:56:22.874Z,42.77
2022-10-09T03:56:53.332Z,42.88
2022-10-09T03:57:23.741Z,42.77
2022-10-09T03:57:54.162Z,42.77
2022-10-09T03:58:24.593Z,42.77
2022-10-09T03:58:55.011Z,42.77
2022-10-09T03:59:25.436Z,42.88
2022-10-09T03:59:55.857Z,42.77
2022-10-09T04:00:26.280Z,42.77
2022-10-09T04:00:56.749Z,42.77
2022-10-09T04:01:27.185Z,42.77
2022-10-09T04:01:57.602Z,42.77
2022-10-09T04:02:28.086Z,42.77
2022-10-09T04:02:58.535Z,42.77
2022-10-09T04:03:28.951Z,42.77
2022-10-09T04:03:59.379Z,42.77
2022-10-09T04:04:29.799Z,42.77
2022-10-09T04:05:00.251Z,42.77
2022-10-09T04:05:30.687Z,42.77
2022-10-09T04:06:01.128Z,42.77
2022-10-09T04:06:31.545Z,42.77
2022-10-09T04:07:01.963Z,42.77
2022-10-09T04:07:32.383Z,42.77
2022-10-09T04:08:02.807Z,42.77
2022-10-09T04:08:33.229Z,42.77
2022-10-09T04:09:03.651Z,42.77
2022-10-09T04:09:34.087Z,42.77
2022-10-09T04:10:04.522Z,42.77
2022-10-09T04:10:34.944Z,42.77
2022-10-09T04:11:05.401Z,42.77
2022-10-09T04:11:35.808Z,42.77
2022-10-09T04:12:06.259Z,42.77
2022-10-09T04:12:36.655Z,42.77
2022-10-09T04:13:07.080Z,42.77
2022-10-09T04:13:37.534Z,42.77
2022-10-09T04:14:07.945Z,42.77
2022-10-09T04:14:38.379Z,42.77
2022-10-09T04:15:08.798Z,42.77
2022-10-09T04:15:39.227Z,42.77
2022-10-09T04:16:09.722Z,42.68
2022-10-09T04:16:40.127Z,42.77
2022-10-09T04:17:10.559Z,42.68
2022-10-09T04:17:40.985Z,42.68
2022-10-09T04:18:11.413Z,42.68
2022-10-09T04:18:41.835Z,42.68
2022-10-09T04:19:12.260Z,42.68
2022-10-09T04:19:42.692Z,42.68
2022-10-09T04:20:13.150Z,42.68
2022-10-09T04:20:43.588Z,42.68
2022-10-09T04:21:14.027Z,42.68
2022-10-09T04:21:44.449Z,42.68
2022-10-09T04:22:14.890Z,42.68
2022-10-09T04:22:45.332Z,42.68
2022-10-09T04:23:15.740Z,42.68
2022-10-09T04:23:46.161Z,42.68
2022-10-09T04:24:16.591Z,42.77
2022-10-09T04:24:47.005Z,42.68
2022-10-09T04:25:17.426Z,42.68
2022-10-09T04:25:47.848Z,42.68
2022-10-09T04:26:18.319Z,42.68
2022-10-09T04:26:48.743Z,42.68
2022-10-09T04:27:19.191Z,42.68
2022-10-09T04:27:49.591Z,42.68
2022-10-09T04:28:20.064Z,42.68
2022-10-09T04:28:50.551Z,42.68
2022-10-09T04:29:20.995Z,42.68
2022-10-09T04:29:51.413Z,42.68
2022-10-09T04:30:21.863Z,42.68
2022-10-09T04:30:52.287Z,42.68
2022-10-09T04:31:22.811Z,42.57
2022-10-09T04:31:53.256Z,42.68
2022-10-09T04:32:23.669Z,42.57
2022-10-09T04:32:54.091Z,42.57
2022-10-09T04:33:24.514Z,42.57
2022-10-09T04:33:54.945Z,42.68
2022-10-09T04:34:25.368Z,42.68
2022-10-09T04:34:55.792Z,42.57
2022-10-09T04:35:26.213Z,42.68
2022-10-09T04:35:56.646Z,42.68
2022-10-09T04:36:27.083Z,42.57
2022-10-09T04:36:57.505Z,42.68
2022-10-09T04:37:27.929Z,42.68
2022-10-09T04:37:58.348Z,42.57
2022-10-09T04:38:28.791Z,42.57
2022-10-09T04:38:59.229Z,42.57
2022-10-09T04:39:29.645Z,42.57
2022-10-09T04:40:00.089Z,42.57
2022-10-09T04:40:30.499Z,42.57
2022-10-09T04:41:00.934Z,42.57
2022-10-09T04:41:34.736Z,42.57
2022-10-09T04:42:06.692Z,42.57
2022-10-09T04:42:37.137Z,42.57
2022-10-09T04:43:07.536Z,42.57
2022-10-09T04:43:37.963Z,42.57
2022-10-09T04:44:08.385Z,42.57
2022-10-09T04:44:38.817Z,42.57
2022-10-09T04:45:09.235Z,42.57
2022-10-09T04:45:39.719Z,42.57
2022-10-09T04:46:10.164Z,42.57
2022-10-09T04:46:40.552Z,42.57
2022-10-09T04:47:11.536Z,42.57
2022-10-09T04:47:41.982Z,42.57
2022-10-09T04:48:12.404Z,42.57
2022-10-09T04:48:42.835Z,42.57
2022-10-09T04:49:13.267Z,42.57
2022-10-09T04:49:43.692Z,42.57
2022-10-09T04:50:14.118Z,42.57
2022-10-09T04:50:44.536Z,42.57
2022-10-09T04:51:14.969Z,42.57
2022-10-09T04:51:45.427Z,42.57
2022-10-09T04:52:15.850Z,42.57
2022-10-09T04:52:46.626Z,42.47
2022-10-09T04:53:17.215Z,42.57
2022-10-09T04:53:47.652Z,42.57
2022-10-09T04:54:18.073Z,42.57
2022-10-09T04:54:48.495Z,42.47
2022-10-09T04:55:18.923Z,42.57
2022-10-09T04:55:49.344Z,42.47
2022-10-09T04:56:19.769Z,42.47
2022-10-09T04:56:50.223Z,42.47
2022-10-09T04:57:20.653Z,42.47
2022-10-09T04:57:51.145Z,42.47
2022-10-09T04:58:21.552Z,42.47
2022-10-09T04:58:51.985Z,42.47
2022-10-09T04:59:22.421Z,42.47
2022-10-09T04:59:52.847Z,42.47
2022-10-09T05:00:23.267Z,42.47
2022-10-09T05:00:53.756Z,42.47
2022-10-09T05:01:24.197Z,42.47
2022-10-09T05:01:54.614Z,42.47
2022-10-09T05:02:25.131Z,42.47
2022-10-09T05:02:55.515Z,42.47
2022-10-09T05:03:25.945Z,42.47
2022-10-09T05:03:56.368Z,42.47
2022-10-09T05:04:26.790Z,42.47
2022-10-09T05:04:57.213Z,42.47
2022-10-09T05:05:27.638Z,42.47
2022-10-09T05:05:58.076Z,42.47
2022-10-09T05:06:28.509Z,42.47
2022-10-09T05:06:58.950Z,42.47
2022-10-09T05:07:29.375Z,42.47
2022-10-09T05:07:59.808Z,42.47
2022-10-09T05:08:30.245Z,42.57
2022-10-09T05:09:00.662Z,42.47
2022-10-09T05:09:31.089Z,42.47
2022-10-09T05:10:01.540Z,42.47
2022-10-09T05:10:31.950Z,42.47
2022-10-09T05:11:02.375Z,42.47
2022-10-09T05:11:32.797Z,42.47
2022-10-09T05:12:03.251Z,42.47
2022-10-09T05:12:33.687Z,42.47
2022-10-09T05:13:04.131Z,42.47
2022-10-09T05:13:34.552Z,42.47
2022-10-09T05:14:04.967Z,42.47
2022-10-09T05:14:35.400Z,42.47
2022-10-09T05:15:05.840Z,42.47
2022-10-09T05:15:36.244Z,42.47
2022-10-09T05:16:06.721Z,42.38
2022-10-09T05:17:00.859Z,42.38
2022-10-09T05:17:14.556Z,42.47
2022-10-09T05:17:45.459Z,42.38
2022-10-09T05:18:15.809Z,42.38
2022-10-09T05:18:46.235Z,42.38
2022-10-09T05:19:16.655Z,42.38
2022-10-09T05:19:47.082Z,42.38
2022-10-09T05:20:17.503Z,42.38
2022-10-09T05:20:47.939Z,42.38
2022-10-09T05:21:18.357Z,42.38
2022-10-09T05:21:48.775Z,42.38
2022-10-09T05:22:19.222Z,42.38
2022-10-09T05:22:49.944Z,42.38
2022-10-09T05:23:20.455Z,42.38
2022-10-09T05:23:50.877Z,42.38
2022-10-09T05:24:21.302Z,42.38
2022-10-09T05:24:51.721Z,42.38
2022-10-09T05:25:22.144Z,42.38
2022-10-09T05:25:52.569Z,42.38
2022-10-09T05:26:23.003Z,42.38
2022-10-09T05:26:53.419Z,42.38
2022-10-09T05:27:23.861Z,42.38
2022-10-09T05:27:54.294Z,42.38
2022-10-09T05:28:24.829Z,42.38
2022-10-09T05:28:55.236Z,42.38
2022-10-09T05:29:25.690Z,42.38
2022-10-09T05:29:56.115Z,42.38
2022-10-09T05:30:26.535Z,42.27
2022-10-09T05:30:56.959Z,42.27
2022-10-09T05:31:27.519Z,42.27
2022-10-09T05:31:57.932Z,42.38
2022-10-09T05:32:28.326Z,42.27
2022-10-09T05:32:58.750Z,42.38
2022-10-09T05:33:29.175Z,42.27
2022-10-09T05:33:59.610Z,42.27
2022-10-09T05:34:30.044Z,42.27
2022-10-09T05:35:00.472Z,42.27
2022-10-09T05:35:30.902Z,42.27
2022-10-09T05:36:01.325Z,42.27
2022-10-09T05:36:31.775Z,42.27
2022-10-09T05:37:02.180Z,42.38
2022-10-09T05:37:32.627Z,42.27
2022-10-09T05:38:03.051Z,42.27
2022-10-09T05:38:33.476Z,42.27
2022-10-09T05:39:03.900Z,42.27
2022-10-09T05:39:34.364Z,42.27
2022-10-09T05:40:04.802Z,42.38
2022-10-09T05:40:35.216Z,42.27
2022-10-09T05:41:05.638Z,42.27
2022-10-09T05:41:36.064Z,42.27
2022-10-09T05:42:06.493Z,42.27
2022-10-09T05:42:36.948Z,42.27
2022-10-09T05:43:07.376Z,42.27
2022-10-09T05:43:37.816Z,42.27
2022-10-09T05:44:08.229Z,42.27
2022-10-09T05:44:38.645Z,42.27
2022-10-09T05:45:09.066Z,42.27
2022-10-09T05:45:39.578Z,42.27
2022-10-09T05:46:10.013Z,42.27
2022-10-09T05:46:40.415Z,42.27
2022-10-09T05:47:10.851Z,42.27
2022-10-09T05:47:41.298Z,42.27
2022-10-09T05:48:11.723Z,42.27
2022-10-09T05:48:42.147Z,42.27
2022-10-09T05:49:12.572Z,42.38
2022-10-09T05:49:43.017Z,42.27
2022-10-09T05:50:13.433Z,42.27
2022-10-09T05:50:43.856Z,42.27
2022-10-09T05:51:14.282Z,42.27
2022-10-09T05:51:44.711Z,42.27
2022-10-09T05:52:15.128Z,42.27
2022-10-09T05:52:45.740Z,42.27
2022-10-09T05:53:16.259Z,42.27
2022-10-09T05:53:46.678Z,42.27
2022-10-09T05:54:17.104Z,42.18
2022-10-09T05:54:47.522Z,42.18
2022-10-09T05:55:17.980Z,42.27
2022-10-09T05:55:48.392Z,42.27
2022-10-09T05:56:18.834Z,42.27
2022-10-09T05:56:49.255Z,42.27
2022-10-09T05:57:19.688Z,42.18
2022-10-09T05:57:50.167Z,42.18
2022-10-09T05:58:20.588Z,42.18
2022-10-09T05:58:51.029Z,42.18
2022-10-09T05:59:21.430Z,42.27
2022-10-09T05:59:51.851Z,42.18
2022-10-09T06:00:22.276Z,42.18
2022-10-09T06:00:52.751Z,42.18
2022-10-09T06:01:23.203Z,42.18
2022-10-09T06:01:53.700Z,42.18
2022-10-09T06:02:24.124Z,42.18
2022-10-09T06:02:54.659Z,42.18
2022-10-09T06:03:25.032Z,42.18
2022-10-09T06:03:55.453Z,42.18
2022-10-09T06:04:25.873Z,42.18
2022-10-09T06:04:56.294Z,42.18
2022-10-09T06:05:26.739Z,42.18
2022-10-09T06:05:57.164Z,42.18
2022-10-09T06:06:27.605Z,42.27
2022-10-09T06:06:58.017Z,42.18
2022-10-09T06:07:28.445Z,42.18
2022-10-09T06:07:58.895Z,42.18
2022-10-09T06:08:29.320Z,42.18
2022-10-09T06:08:59.740Z,42.18
2022-10-09T06:09:30.184Z,42.18
2022-10-09T06:10:00.606Z,42.18
2022-10-09T06:10:32.631Z,42.18
2022-10-09T06:11:03.103Z,42.18
2022-10-09T06:11:33.537Z,42.18
2022-10-09T06:12:03.954Z,42.18
2022-10-09T06:12:34.399Z,42.18
2022-10-09T06:13:04.837Z,42.18
2022-10-09T06:13:35.262Z,42.07
2022-10-09T06:14:05.712Z,42.18
2022-10-09T06:14:36.124Z,42.07
2022-10-09T06:15:06.560Z,42.07
2022-10-09T06:15:36.982Z,42.07
2022-10-09T06:16:07.407Z,42.07
2022-10-09T06:16:37.889Z,42.18
2022-10-09T06:17:08.257Z,42.18
2022-10-09T06:17:38.688Z,42.07
2022-10-09T06:18:09.119Z,42.07
2022-10-09T06:18:39.553Z,42.07
2022-10-09T06:19:09.973Z,42.07
2022-10-09T06:19:40.397Z,42.07
2022-10-09T06:20:10.817Z,42.07
2022-10-09T06:20:41.239Z,42.07
2022-10-09T06:21:11.666Z,42.07
2022-10-09T06:21:42.113Z,42.07
2022-10-09T06:22:12.551Z,42.07
2022-10-09T06:22:42.967Z,42.07
2022-10-09T06:23:13.408Z,42.07
2022-10-09T06:23:43.833Z,42.07
2022-10-09T06:24:14.279Z,42.07
2022-10-09T06:24:44.723Z,42.07
2022-10-09T06:25:15.148Z,42.07
2022-10-09T06:25:45.567Z,42.07
2022-10-09T06:26:15.995Z,42.07
2022-10-09T06:26:46.444Z,42.07
2022-10-09T06:27:16.884Z,42.07
2022-10-09T06:27:47.304Z,42.07
2022-10-09T06:28:17.770Z,42.07
2022-10-09T06:28:48.235Z,42.07
2022-10-09T06:29:18.653Z,42.07
2022-10-09T06:29:49.089Z,42.07
2022-10-09T06:30:19.530Z,42.07
2022-10-09T06:30:50.009Z,41.97
2022-10-09T06:31:20.517Z,41.97
2022-10-09T06:31:50.935Z,41.97
2022-10-09T06:32:21.403Z,41.97